Time;durP1;ratioP1;P1;durP2;ratioP2;P2;SDS_P1;SDS_P2;PMS_P1;PMS_P2;Temp;Humidity;BMP_temperature;BMP_pressure;BME280_temperature;BME280_humidity;BME280_pressure;Samples;Min_cycle;Max_cycle;Signal;HPM_P1;HPM_P2
2023/01/09 00:00:01;;;;;;;11.20;2.00;;;;;;;11.65;72.95;99368.06;4987698;28;20051;-67
2023/01/09 00:02:31;;;;;;;9.40;2.00;;;;;;;11.43;71.36;99369.41;4995492;28;20049;-68
2023/01/09 00:04:59;;;;;;;9.85;2.10;;;;;;;11.37;72.92;99364.53;4996363;28;20051;-68
2023/01/09 00:07:26;;;;;;;11.50;2.13;;;;;;;11.49;73.62;99369.97;4997585;28;20058;-68
2023/01/09 00:09:53;;;;;;;9.43;1.70;;;;;;;11.47;72.37;99367.56;5011309;28;20051;-68
2023/01/09 00:12:20;;;;;;;12.73;2.47;;;;;;;11.63;71.94;99356.56;4997180;28;20054;-68
2023/01/09 00:14:48;;;;;;;12.95;2.40;;;;;;;11.43;72.21;99385.16;4997628;28;20066;-69
2023/01/09 00:17:15;;;;;;;12.65;2.45;;;;;;;11.57;72.45;99382.78;4997095;28;20526;-68
2023/01/09 00:19:42;;;;;;;12.70;1.98;;;;;;;11.73;72.90;99380.91;4996419;28;20042;-68
2023/01/09 00:22:10;;;;;;;10.68;1.92;;;;;;;11.94;73.64;99378.72;4996192;28;20059;-69
2023/01/09 00:24:37;;;;;;;8.70;1.90;;;;;;;11.63;72.01;99387.69;4997082;28;20506;-67
2023/01/09 00:27:04;;;;;;;13.75;2.10;;;;;;;11.73;71.48;99376.19;4979151;28;20410;-68
2023/01/09 00:29:32;;;;;;;18.40;2.13;;;;;;;11.57;71.40;99382.78;4997417;28;20054;-68
2023/01/09 00:31:59;;;;;;;15.23;2.55;;;;;;;11.40;71.54;99389.44;4979729;28;20069;-68
2023/01/09 00:34:27;;;;;;;12.82;2.65;;;;;;;11.38;71.98;99389.75;4997053;28;20050;-68
2023/01/09 00:36:55;;;;;;;21.52;3.78;;;;;;;10.76;69.67;99383.97;4996688;28;20053;-68
2023/01/09 00:39:22;;;;;;;13.95;2.78;;;;;;;11.34;72.33;99377.03;4997027;28;20061;-68
2023/01/09 00:41:52;;;;;;;14.10;2.72;;;;;;;11.42;73.13;99381.59;4979361;28;20390;-68
2023/01/09 00:44:31;;;;;;;15.10;2.38;;;;;;;11.37;71.08;99370.81;4996905;28;20065;-68
2023/01/09 00:47:03;;;;;;;17.60;2.53;;;;;;;11.67;72.50;99374.84;4996677;28;20054;-68
2023/01/09 00:49:33;;;;;;;10.40;2.75;;;;;;;11.67;71.49;99382.31;4997049;28;20398;-68
2023/01/09 00:52:01;;;;;;;14.07;2.85;;;;;;;11.56;72.06;99383.97;4995201;28;20410;-69
2023/01/09 00:54:29;;;;;;;13.98;2.40;;;;;;;11.25;70.26;99379.13;4979440;28;20513;-68
2023/01/09 00:56:58;;;;;;;17.42;2.35;;;;;;;11.32;71.81;99399.44;4979017;28;20053;-68
2023/01/09 00:59:26;;;;;;;13.93;2.50;;;;;;;11.28;72.27;99390.25;4995546;28;20062;-68
2023/01/09 01:01:54;;;;;;;20.20;2.58;;;;;;;11.34;72.62;99388.88;4995490;28;20054;-67
2023/01/09 01:09:53;;;;;;;14.20;2.83;;;;;;;11.53;72.04;99384.66;5011408;28;20054;-68
2023/01/09 01:12:20;;;;;;;14.23;2.42;;;;;;;11.66;71.30;99389.81;4995579;28;20069;-69
2023/01/09 01:14:47;;;;;;;14.65;2.92;;;;;;;11.62;70.36;99394.38;4995453;28;20066;-68
2023/01/09 01:17:15;;;;;;;16.50;3.00;;;;;;;11.78;72.06;99394.44;4978741;28;20061;-69
2023/01/09 01:19:42;;;;;;;13.02;2.38;;;;;;;12.09;71.60;99389.75;4994399;28;20069;-67
2023/01/09 01:22:09;;;;;;;12.73;2.50;;;;;;;11.89;69.13;99378.97;4995888;28;20050;-69
2023/01/09 01:24:36;;;;;;;17.15;2.65;;;;;;;11.23;70.42;99395.22;4996156;28;20142;-68
2023/01/09 01:27:04;;;;;;;13.07;2.35;;;;;;;11.05;72.64;99380.13;4995012;28;20061;-68
2023/01/09 01:29:31;;;;;;;13.48;2.33;;;;;;;11.45;72.14;99383.66;4996150;28;20046;-68
2023/01/09 01:31:58;;;;;;;13.60;2.65;;;;;;;11.41;71.92;99402.06;5010789;28;20057;-69
2023/01/09 01:34:27;;;;;;;12.48;2.53;;;;;;;11.10;72.63;99405.50;5011383;28;20054;-68
2023/01/09 01:36:55;;;;;;;14.20;2.70;;;;;;;11.56;70.10;99422.56;4994781;28;20051;-67
2023/01/09 01:39:22;;;;;;;18.88;2.83;;;;;;;11.36;73.79;99418.84;4996044;28;20073;-68
2023/01/09 01:41:49;;;;;;;13.50;2.95;;;;;;;11.49;72.13;99417.63;4977316;28;20054;-68
2023/01/09 01:44:54;;;;;;;22.10;3.10;;;;;;;11.51;71.88;99414.53;4979111;28;20073;-68
2023/01/09 01:47:30;;;;;;;18.58;3.17;;;;;;;11.10;72.77;99422.03;4995891;28;20050;-69
2023/01/09 01:49:57;;;;;;;13.13;2.72;;;;;;;11.58;72.42;99411.97;4995007;28;20042;-68
2023/01/09 01:52:26;;;;;;;16.20;2.38;;;;;;;11.70;72.12;99417.47;5010544;28;20053;-68
2023/01/09 01:54:54;;;;;;;17.48;3.50;;;;;;;11.55;72.36;99420.94;4978928;28;20057;-68
2023/01/09 01:57:21;;;;;;;15.27;2.53;;;;;;;11.52;71.10;99408.69;4978226;28;20166;-68
2023/01/09 01:59:51;;;;;;;14.02;2.75;;;;;;;11.63;72.52;99412.53;4995843;28;20050;-69
2023/01/09 02:02:22;;;;;;;13.25;3.33;;;;;;;11.51;72.47;99409.00;4977803;28;20061;-68
2023/01/09 02:04:51;;;;;;;20.15;3.60;;;;;;;11.21;70.32;99411.28;4979603;28;20058;-68
2023/01/09 02:07:19;;;;;;;21.65;2.88;;;;;;;11.33;72.00;99411.28;4978741;28;20500;-68
2023/01/09 02:09:46;;;;;;;12.93;2.30;;;;;;;11.68;71.93;99404.03;4994855;28;20066;-67
2023/01/09 02:12:23;;;;;;;17.10;3.00;;;;;;;11.43;72.72;99419.06;5010269;28;20047;-68
2023/01/09 02:14:57;;;;;;;14.85;2.45;;;;;;;11.45;70.94;99415.94;4994127;28;20046;-67
2023/01/09 02:17:36;;;;;;;14.95;2.97;;;;;;;11.71;71.89;99439.19;4993852;28;20062;-70
2023/01/09 02:20:31;;;;;;;15.52;3.05;;;;;;;11.43;72.10;99430.09;4996265;28;20068;-69
2023/01/09 02:23:20;;;;;;;20.17;2.97;;;;;;;11.01;70.49;99426.88;4995877;28;20518;-67
2023/01/09 02:26:06;;;;;;;16.48;2.47;;;;;;;11.40;73.91;99428.03;4993745;28;20053;-68
2023/01/09 02:29:05;;;;;;;14.70;2.80;;;;;;;11.28;72.56;99428.84;4996062;28;20042;-67
2023/01/09 02:31:36;;;;;;;15.05;2.50;;;;;;;11.56;70.94;99428.09;4985581;28;20042;-69
2023/01/09 02:34:18;;;;;;;17.25;3.15;;;;;;;11.71;71.04;99444.72;4976570;28;20046;-68
2023/01/09 02:36:45;;;;;;;15.02;3.10;;;;;;;11.32;70.76;99446.31;4986372;28;20058;-69
2023/01/09 02:39:25;;;;;;;17.08;3.25;;;;;;;11.58;71.32;99440.34;4980218;28;20055;-68
2023/01/09 02:42:04;;;;;;;15.05;2.92;;;;;;;11.71;72.02;99452.19;5007746;28;20061;-70
2023/01/09 02:44:34;;;;;;;15.77;2.97;;;;;;;11.57;71.65;99444.28;4997512;28;20050;-68
2023/01/09 02:47:06;;;;;;;18.77;3.03;;;;;;;11.70;71.58;99456.88;4999014;28;20046;-69
2023/01/09 02:49:36;;;;;;;17.30;2.50;;;;;;;11.60;72.54;99462.06;5002740;28;20062;-69
2023/01/09 02:52:09;;;;;;;19.13;2.85;;;;;;;11.28;72.02;99444.59;5008574;28;20054;-70
2023/01/09 02:54:48;;;;;;;25.23;3.67;;;;;;;11.39;72.42;99451.22;4981364;28;20054;-69
2023/01/09 02:57:26;;;;;;;22.58;3.70;;;;;;;11.56;71.67;99455.66;5013697;28;20054;-68
2023/01/09 03:00:03;;;;;;;17.10;2.90;;;;;;;11.63;72.56;99450.34;4999303;28;20081;-69
2023/01/09 03:02:42;;;;;;;16.73;3.08;;;;;;;11.74;71.74;99445.94;4998426;28;20054;-58
2023/01/09 03:05:09;;;;;;;18.42;2.53;;;;;;;11.82;73.48;99445.78;4981006;28;20059;-60
2023/01/09 03:07:41;;;;;;;19.35;3.53;;;;;;;11.69;72.66;99452.53;4998695;28;20046;-60
2023/01/09 03:10:18;;;;;;;25.63;3.65;;;;;;;11.60;70.62;99451.03;4998725;28;20065;-59
2023/01/09 03:12:48;;;;;;;12.85;2.20;;;;;;;11.80;70.64;99452.81;4993178;28;20078;-61
2023/01/09 03:15:17;;;;;;;15.75;4.05;;;;;;;11.85;70.88;99458.91;4978489;28;20066;-67
2023/01/09 03:17:47;;;;;;;18.15;2.92;;;;;;;11.77;69.27;99467.34;4942575;29;20066;-57
2023/01/09 03:20:17;;;;;;;15.48;2.83;;;;;;;11.54;71.64;99472.53;4958784;28;20055;-58
2023/01/09 03:22:55;;;;;;;13.63;2.83;;;;;;;11.89;71.99;99468.06;4997603;28;20065;-68
2023/01/09 03:25:24;;;;;;;15.10;3.15;;;;;;;11.63;71.75;99481.47;4993671;28;20625;-63
2023/01/09 03:27:55;;;;;;;21.58;3.17;;;;;;;11.46;72.48;99472.69;4998646;28;20057;-61
2023/01/09 03:30:23;;;;;;;18.35;2.75;;;;;;;11.40;71.48;99474.91;4998261;28;20057;-64
2023/01/09 03:32:51;;;;;;;19.27;3.50;;;;;;;11.47;70.69;99475.13;5013840;28;20379;-61
2023/01/09 03:35:18;;;;;;;17.63;2.47;;;;;;;11.42;71.72;99480.06;4998369;28;20054;-60
2023/01/09 03:37:46;;;;;;;12.00;2.67;;;;;;;11.95;71.02;99477.69;4998863;28;20057;-61
2023/01/09 03:40:13;;;;;;;13.73;2.78;;;;;;;11.55;71.20;99481.63;4980287;28;20065;-61
2023/01/09 03:42:40;;;;;;;19.13;2.95;;;;;;;11.72;72.24;99484.09;4979970;28;20050;-59
2023/01/09 03:45:08;;;;;;;18.95;3.10;;;;;;;11.96;71.12;99486.78;4998318;28;20241;-60
2023/01/09 03:47:35;;;;;;;16.85;2.45;;;;;;;11.45;71.80;99484.88;4998184;28;20058;-60
2023/01/09 03:50:03;;;;;;;16.83;2.92;;;;;;;11.64;71.57;99480.38;4998521;28;20042;-67
2023/01/09 03:52:31;;;;;;;21.98;3.10;;;;;;;11.52;71.78;99474.88;4996406;28;20050;-68
2023/01/09 03:54:58;;;;;;;19.63;3.03;;;;;;;11.64;70.80;99482.28;5013352;28;20649;-68
2023/01/09 03:57:25;;;;;;;17.05;3.10;;;;;;;11.77;70.07;99478.38;4997673;28;20061;-61
2023/01/09 03:59:53;;;;;;;14.13;2.55;;;;;;;12.10;71.69;99478.91;4997109;28;20046;-61
2023/01/09 04:02:20;;;;;;;16.23;2.72;;;;;;;12.02;70.56;99493.66;4995913;28;20046;-61
2023/01/09 04:04:47;;;;;;;12.68;2.70;;;;;;;11.90;70.26;99489.00;4996801;28;20054;-63
2023/01/09 04:07:15;;;;;;;17.63;2.80;;;;;;;11.96;70.35;99495.84;4997448;28;20058;-61
2023/01/09 04:09:42;;;;;;;20.23;2.70;;;;;;;11.96;71.63;99503.34;4997814;28;20406;-60
2023/01/09 04:12:09;;;;;;;17.83;2.63;;;;;;;11.78;70.66;99524.91;4997059;28;20050;-68
2023/01/09 04:14:36;;;;;;;16.20;2.90;;;;;;;11.78;69.95;99524.09;5012749;28;20517;-68
2023/01/09 04:17:04;;;;;;;12.90;2.25;;;;;;;11.93;70.85;99524.16;4998080;28;20489;-61
2023/01/09 04:19:31;;;;;;;16.88;3.20;;;;;;;11.95;69.70;99530.13;4997303;28;20061;-59
2023/01/09 04:21:58;;;;;;;16.45;2.53;;;;;;;11.82;68.48;99527.78;4997427;28;20047;-60
2023/01/09 04:24:27;;;;;;;13.15;2.47;;;;;;;11.69;70.63;99540.00;4998026;28;20061;-58
2023/01/09 04:26:55;;;;;;;16.48;2.72;;;;;;;11.77;69.82;99539.06;4997047;28;20068;-62
2023/01/09 04:29:22;;;;;;;16.77;3.30;;;;;;;11.51;71.25;99533.09;4997049;28;20050;-60
2023/01/09 04:31:49;;;;;;;18.70;2.90;;;;;;;11.62;70.56;99528.72;4996685;28;20046;-61
2023/01/09 04:34:17;;;;;;;14.40;2.95;;;;;;;11.80;70.62;99530.84;4998054;28;20054;-69
2023/01/09 04:36:44;;;;;;;16.38;2.58;;;;;;;11.96;70.70;99526.19;4993969;28;20050;-60
2023/01/09 04:39:11;;;;;;;17.30;2.75;;;;;;;11.83;68.31;99521.91;5011517;28;20065;-61
2023/01/09 04:41:48;;;;;;;20.20;3.53;;;;;;;11.84;71.18;99529.00;4978457;28;20709;-62
2023/01/09 04:44:20;;;;;;;14.77;2.83;;;;;;;11.96;70.45;99528.19;4997341;28;20560;-70
2023/01/09 04:46:48;;;;;;;19.23;3.30;;;;;;;11.73;70.27;99532.63;4995840;28;20050;-59
2023/01/09 04:49:15;;;;;;;16.85;2.95;;;;;;;11.66;72.65;99521.38;4997108;28;20069;-68
2023/01/09 04:51:42;;;;;;;17.23;2.67;;;;;;;11.80;72.06;99527.31;4996439;28;20069;-60
2023/01/09 04:54:10;;;;;;;16.75;2.85;;;;;;;11.76;68.88;99526.41;4979746;28;20065;-62
2023/01/09 04:56:37;;;;;;;13.07;2.42;;;;;;;11.60;70.04;99533.75;4994511;28;20054;-61
2023/01/09 04:59:06;;;;;;;15.85;2.72;;;;;;;11.76;69.44;99526.41;4997086;28;20050;-60
2023/01/09 05:01:33;;;;;;;16.98;2.47;;;;;;;12.13;71.73;99531.41;4975825;28;20053;-60
2023/01/09 05:04:01;;;;;;;12.23;2.45;;;;;;;11.84;71.29;99528.19;4996772;28;20050;-61
2023/01/09 05:06:29;;;;;;;12.98;2.70;;;;;;;11.71;70.07;99518.38;4996733;28;20046;-62
2023/01/09 05:08:57;;;;;;;19.60;3.25;;;;;;;11.82;71.38;99525.78;4996833;28;20050;-60
2023/01/09 05:11:24;;;;;;;17.15;2.78;;;;;;;11.95;70.89;99532.06;4995947;28;20049;-67
2023/01/09 05:13:52;;;;;;;11.25;2.45;;;;;;;11.98;69.81;99539.66;4996758;28;20521;-67
2023/01/09 05:16:20;;;;;;;14.80;2.45;;;;;;;11.75;70.64;99544.91;4996206;28;20073;-69
2023/01/09 05:18:48;;;;;;;11.70;3.05;;;;;;;11.90;70.45;99549.69;4994758;28;20509;-68
2023/01/09 05:21:15;;;;;;;14.20;2.70;;;;;;;11.86;69.45;99551.53;4994967;28;20086;-68
2023/01/09 05:23:42;;;;;;;11.77;2.03;;;;;;;12.14;70.77;99549.59;4996746;28;20061;-68
2023/01/09 05:26:10;;;;;;;14.10;2.78;;;;;;;12.03;70.39;99548.47;4994753;28;20057;-67
2023/01/09 05:28:37;;;;;;;15.27;2.75;;;;;;;12.14;70.20;99557.06;4996645;28;20058;-67
2023/01/09 05:31:05;;;;;;;13.98;2.75;;;;;;;11.94;69.75;99567.13;4996050;28;20035;-60
2023/01/09 05:33:32;;;;;;;12.93;2.38;;;;;;;11.50;69.57;99572.88;4995076;28;20073;-60
2023/01/09 05:36:00;;;;;;;11.35;2.10;;;;;;;11.91;71.18;99564.28;4995941;28;20053;-60
2023/01/09 05:38:27;;;;;;;14.82;2.28;;;;;;;11.41;66.87;99583.22;4995229;28;20051;-59
2023/01/09 05:40:54;;;;;;;19.10;2.60;;;;;;;11.38;67.97;99578.41;4995756;28;20490;-60
2023/01/09 05:43:22;;;;;;;14.27;1.92;;;;;;;11.37;70.15;99574.03;4994695;28;20050;-61
2023/01/09 05:45:49;;;;;;;14.50;2.63;;;;;;;11.49;70.18;99591.34;4995850;28;20049;-69
2023/01/09 05:48:16;;;;;;;12.10;2.40;;;;;;;11.55;71.04;99589.16;4996384;28;20058;-68
2023/01/09 05:50:44;;;;;;;9.88;1.98;;;;;;;11.79;69.38;99586.38;4995947;28;20046;-69
2023/01/09 05:53:11;;;;;;;15.07;2.35;;;;;;;11.42;68.60;99593.09;4995906;28;20046;-68
2023/01/09 05:55:38;;;;;;;13.77;2.53;;;;;;;11.81;68.93;99595.94;4995449;28;20061;-61
2023/01/09 05:58:06;;;;;;;13.10;1.92;;;;;;;11.61;66.56;99593.31;4994830;28;20058;-67
2023/01/09 06:00:33;;;;;;;10.77;1.70;;;;;;;11.79;71.16;99603.75;4994132;28;20233;-67
2023/01/09 06:03:01;;;;;;;10.52;1.85;;;;;;;11.89;68.46;99603.25;4995921;28;20046;-59
2023/01/09 06:05:28;;;;;;;10.85;2.08;;;;;;;12.11;68.13;99597.22;4977970;28;20058;-61
2023/01/09 06:07:55;;;;;;;10.70;1.70;;;;;;;11.99;68.78;99594.50;4996379;28;20058;-60
2023/01/09 06:10:22;;;;;;;10.48;2.13;;;;;;;12.14;68.82;99604.00;5014290;28;20062;-67
2023/01/09 06:12:50;;;;;;;11.20;1.73;;;;;;;11.73;67.61;99601.59;4999707;28;20049;-69
2023/01/09 06:15:19;;;;;;;10.30;1.88;;;;;;;11.52;66.35;99598.97;4998446;28;20052;-68
2023/01/09 06:17:46;;;;;;;14.38;2.50;;;;;;;11.52;64.39;99600.91;5000180;28;20058;-69
2023/01/09 06:20:14;;;;;;;11.25;2.28;;;;;;;11.60;68.56;99603.53;4998643;28;20054;-69
2023/01/09 06:22:43;;;;;;;11.07;2.08;;;;;;;11.21;65.48;99602.28;4998428;28;20042;-69
2023/01/09 06:25:11;;;;;;;8.98;1.73;;;;;;;10.92;66.50;99621.78;4998724;28;20061;-68
2023/01/09 06:27:39;;;;;;;10.45;2.00;;;;;;;10.43;67.38;99622.00;4997734;28;20061;-67
2023/01/09 06:30:07;;;;;;;12.82;2.22;;;;;;;11.34;71.02;99634.22;4999487;28;20138;-60
2023/01/09 06:32:34;;;;;;;9.13;1.67;;;;;;;11.16;67.07;99640.28;4997822;28;20042;-62
2023/01/09 06:35:02;;;;;;;9.40;2.20;;;;;;;11.18;69.11;99644.31;4998481;28;20498;-57
2023/01/09 06:37:29;;;;;;;14.70;2.45;;;;;;;11.44;66.75;99634.94;4999160;28;20077;-57
2023/01/09 06:39:57;;;;;;;8.52;1.77;;;;;;;11.21;67.66;99649.16;4999692;28;20497;-61
2023/01/09 06:42:24;;;;;;;8.68;1.67;;;;;;;11.68;67.82;99651.47;5013603;28;20065;-58
2023/01/09 06:44:51;;;;;;;15.88;2.53;;;;;;;11.61;68.67;99654.00;4999618;28;20526;-61
2023/01/09 06:47:19;;;;;;;9.82;1.95;;;;;;;11.57;65.83;99648.34;4998602;28;20065;-62
2023/01/09 06:49:46;;;;;;;15.07;3.70;;;;;;;12.18;66.76;99655.41;5014251;28;20065;-60
2023/01/09 06:52:13;;;;;;;14.07;2.10;;;;;;;12.32;63.48;99666.06;5011248;28;20881;-60
2023/01/09 06:54:41;;;;;;;13.18;1.88;;;;;;;12.10;64.36;99664.63;4980078;28;20062;-62
2023/01/09 06:57:08;;;;;;;12.13;2.13;;;;;;;11.58;63.75;99676.72;4995639;28;20061;-62
2023/01/09 06:59:35;;;;;;;9.52;1.80;;;;;;;11.89;66.70;99666.72;4998100;28;20050;-59
2023/01/09 07:02:03;;;;;;;6.07;1.85;;;;;;;11.81;66.96;99675.13;4998757;28;20046;-60
2023/01/09 07:04:30;;;;;;;10.35;2.40;;;;;;;11.57;64.74;99675.94;4966281;28;20063;-63
2023/01/09 07:06:57;;;;;;;9.27;1.67;;;;;;;11.61;66.67;99679.59;4976717;28;20066;-62
2023/01/09 07:09:27;;;;;;;7.45;1.60;;;;;;;11.92;65.97;99692.84;4984985;28;20050;-57
2023/01/09 07:11:54;;;;;;;14.38;2.35;;;;;;;11.74;63.74;99696.97;4975471;28;20421;-68
2023/01/09 07:14:22;;;;;;;14.27;1.80;;;;;;;11.67;66.78;99700.31;4984381;28;20042;-69
2023/01/09 07:16:49;;;;;;;8.15;1.67;;;;;;;11.44;67.07;99699.13;5004147;28;20491;-68
2023/01/09 07:19:16;;;;;;;11.82;3.67;;;;;;;11.64;66.11;99700.19;4992736;28;20058;-68
2023/01/09 07:21:44;;;;;;;10.25;2.00;;;;;;;11.00;64.46;99711.81;4977670;28;20042;-61
2023/01/09 07:24:11;;;;;;;8.35;1.58;;;;;;;10.69;68.53;99702.41;4978578;28;20051;-61
2023/01/09 07:26:38;;;;;;;10.77;2.00;;;;;;;11.00;66.23;99700.00;4992928;28;20066;-61
2023/01/09 07:29:08;;;;;;;7.10;1.73;;;;;;;11.18;68.11;99707.72;5003294;28;20057;-62
2023/01/09 07:31:35;;;;;;;7.45;1.52;;;;;;;11.42;67.84;99708.91;4962654;28;20503;-63
2023/01/09 07:34:03;;;;;;;9.88;1.83;;;;;;;11.35;67.10;99714.97;4978272;28;20051;-61
2023/01/09 07:36:30;;;;;;;9.30;1.83;;;;;;;11.62;68.44;99699.72;5000488;28;20062;-61
2023/01/09 07:38:58;;;;;;;9.32;1.75;;;;;;;12.29;71.23;99706.19;4992245;28;20047;-68
2023/01/09 07:41:25;;;;;;;6.47;1.35;;;;;;;11.92;65.37;99703.88;4980553;28;20034;-65
2023/01/09 07:43:53;;;;;;;9.25;1.50;;;;;;;10.64;67.55;99722.69;5003742;28;20078;-65
2023/01/09 07:46:20;;;;;;;14.93;1.52;;;;;;;11.48;70.31;99710.28;4984972;28;20085;-59
2023/01/09 07:48:47;;;;;;;8.57;1.75;;;;;;;11.76;68.80;99725.03;4978471;28;20065;-65
2023/01/09 07:51:15;;;;;;;7.43;1.92;;;;;;;10.91;63.32;99724.84;5008710;28;20051;-61
2023/01/09 07:53:42;;;;;;;13.70;1.80;;;;;;;11.09;67.86;99736.50;4977986;28;20518;-61
2023/01/09 07:56:09;;;;;;;12.23;1.60;;;;;;;10.88;68.78;99735.78;4985057;28;20141;-67
2023/01/09 07:58:37;;;;;;;10.95;1.70;;;;;;;11.22;69.08;99749.19;5013143;28;20057;-66
2023/01/09 08:01:04;;;;;;;13.13;1.75;;;;;;;10.61;67.92;99748.16;4987651;28;20541;-61
2023/01/09 08:03:32;;;;;;;11.98;1.55;;;;;;;10.10;68.86;99752.09;4984503;28;20047;-60
2023/01/09 08:06:00;;;;;;;10.05;1.75;;;;;;;10.19;70.84;99771.31;4990712;28;20053;-60
2023/01/09 08:08:27;;;;;;;15.23;2.60;;;;;;;10.57;67.87;99763.75;4991395;28;20054;-61
2023/01/09 08:10:55;;;;;;;8.27;1.40;;;;;;;10.72;69.03;99771.38;4996663;28;20062;-58
2023/01/09 08:13:22;;;;;;;11.88;1.40;;;;;;;10.63;65.75;99767.91;4996493;28;20055;-60
2023/01/09 08:15:49;;;;;;;7.32;1.65;;;;;;;11.28;67.24;99764.34;4979524;28;20042;-58
2023/01/09 08:18:16;;;;;;;9.00;1.30;;;;;;;10.29;63.87;99775.63;4978533;28;20443;-61
2023/01/09 08:20:47;;;;;;;10.73;1.58;;;;;;;9.71;66.36;99793.69;4981916;28;20042;-60
2023/01/09 08:23:14;;;;;;;12.50;1.88;;;;;;;10.58;71.44;99783.84;4996198;28;20061;-60
2023/01/09 08:25:41;;;;;;;8.45;2.67;;;;;;;10.66;68.50;99786.50;4994169;28;20073;-60
2023/01/09 08:28:09;;;;;;;9.77;2.08;;;;;;;10.66;67.67;99791.22;4997450;28;20046;-60
2023/01/09 08:30:36;;;;;;;11.93;1.90;;;;;;;11.20;68.07;99785.38;5010686;28;20062;-62
2023/01/09 08:33:04;;;;;;;11.40;1.70;;;;;;;11.28;65.33;99789.97;4996763;28;20081;-60
2023/01/09 08:35:32;;;;;;;10.05;1.70;;;;;;;10.74;63.60;99793.09;5011701;28;20046;-60
2023/01/09 08:37:59;;;;;;;4.88;1.30;;;;;;;11.18;67.79;99798.69;4997337;28;20050;-59
2023/01/09 08:40:26;;;;;;;4.88;1.33;;;;;;;11.15;65.16;99782.81;5011555;28;20066;-58
2023/01/09 08:48:26;;;;;;;7.43;1.33;;;;;;;10.88;67.84;99810.94;5009805;28;20150;-56
2023/01/09 08:50:53;;;;;;;6.68;1.45;;;;;;;11.04;64.83;99811.94;4996347;28;20050;-59
2023/01/09 08:53:20;;;;;;;11.20;1.40;;;;;;;10.26;68.47;99815.63;4995267;28;20066;-59
2023/01/09 08:55:48;;;;;;;4.70;0.93;;;;;;;10.97;64.06;99821.88;4995019;28;20058;-61
2023/01/09 08:58:15;;;;;;;10.15;1.48;;;;;;;10.46;63.75;99822.31;5011706;28;20065;-61
2023/01/09 09:00:42;;;;;;;6.40;1.40;;;;;;;10.16;67.74;99838.03;4996062;28;20402;-61
2023/01/09 09:03:10;;;;;;;5.53;1.50;;;;;;;10.35;67.71;99837.59;4996387;28;20066;-61
2023/01/09 09:05:38;;;;;;;6.47;1.17;;;;;;;11.02;65.36;99839.03;4979190;28;20409;-68
2023/01/09 09:08:05;;;;;;;7.80;1.45;;;;;;;11.11;68.30;99845.28;4997206;28;20057;-68
2023/01/09 09:10:33;;;;;;;4.47;1.00;;;;;;;11.56;64.33;99847.28;4996718;28;20058;-69
2023/01/09 09:13:00;;;;;;;6.07;1.05;;;;;;;11.61;62.95;99852.56;4996535;28;20073;-67
2023/01/09 09:15:28;;;;;;;5.60;0.90;;;;;;;10.90;63.90;99861.00;4996209;28;20080;-68
2023/01/09 09:17:57;;;;;;;4.47;1.13;;;;;;;10.75;66.28;99853.34;4997192;28;20055;-68
2023/01/09 09:20:28;;;;;;;7.40;1.02;;;;;;;10.56;62.70;99876.97;4996389;28;20065;-68
2023/01/09 09:22:55;;;;;;;6.95;1.00;;;;;;;10.51;64.24;99869.72;4996979;28;20065;-69
2023/01/09 09:25:23;;;;;;;5.82;1.33;;;;;;;10.57;67.42;99879.41;4995333;28;20418;-67
2023/01/09 09:27:51;;;;;;;10.25;1.40;;;;;;;10.54;65.96;99890.28;4996472;28;20049;-68
2023/01/09 09:30:19;;;;;;;4.95;0.88;;;;;;;10.85;67.32;99904.47;4996324;28;20058;-68
2023/01/09 09:32:46;;;;;;;6.32;1.17;;;;;;;10.34;65.30;99905.59;4996317;28;20437;-67
2023/01/09 09:35:16;;;;;;;5.80;1.33;;;;;;;10.71;65.39;99882.72;4978645;28;20054;-68
2023/01/09 09:37:56;;;;;;;6.68;1.30;;;;;;;10.43;68.06;99908.28;4996607;28;20073;-68
2023/01/09 09:40:44;;;;;;;6.55;1.30;;;;;;;10.90;65.21;99907.84;4995923;28;20054;-68
2023/01/09 09:47:10;;;;;;;6.70;1.23;;;;;;;10.92;64.21;99916.59;4954857;29;20059;-69
2023/01/09 09:49:45;;;;;;;4.47;1.30;;;;;;;10.83;65.97;99913.09;4939506;29;20404;-70
2023/01/09 09:52:50;;;;;;;6.07;1.20;;;;;;;11.06;63.11;99924.59;4993453;28;20066;-69
2023/01/09 09:55:25;;;;;;;7.72;1.55;;;;;;;10.64;64.52;99944.94;4997887;28;20061;-71
2023/01/09 09:57:53;;;;;;;9.98;1.83;;;;;;;9.98;64.66;99946.50;4997219;28;20494;-69
2023/01/09 10:00:23;;;;;;;8.90;1.40;;;;;;;10.45;68.37;99956.41;4995265;28;20073;-69
2023/01/09 10:02:58;;;;;;;5.88;1.30;;;;;;;11.24;67.34;99942.63;4979363;28;20046;-68
2023/01/09 10:05:30;;;;;;;5.78;1.17;;;;;;;11.62;65.58;99953.47;4996473;28;20050;-69
2023/01/09 10:08:03;;;;;;;7.25;1.10;;;;;;;11.52;63.16;99967.69;4996818;28;20414;-70
2023/01/09 10:10:46;;;;;;;5.40;0.95;;;;;;;11.15;65.08;99972.19;4995162;28;20484;-68
2023/01/09 10:16:17;;;;;;;4.78;1.27;;;;;;;9.73;64.92;99974.84;4996269;28;20045;-67
2023/01/09 10:19:01;;;;;;;4.82;1.20;;;;;;;9.89;65.56;99982.28;4995653;28;20050;-69
2023/01/09 10:21:50;;;;;;;7.13;1.23;;;;;;;10.17;65.51;99972.53;4995802;28;20053;-69
2023/01/09 10:24:21;;;;;;;9.43;1.35;;;;;;;10.50;64.72;99991.19;5010841;28;20050;-69
2023/01/09 10:26:51;;;;;;;;;;;;;;;10.32;64.50;99992.41;4994997;28;20054;-69
2023/01/09 10:29:24;;;;;;;8.63;2.20;;;;;;;10.35;65.00;99995.31;5011229;28;20029;-70
2023/01/09 10:32:06;;;;;;;11.57;1.50;;;;;;;11.01;66.16;100007.47;5009857;28;20054;-73
2023/01/09 10:34:56;;;;;;;7.78;1.38;;;;;;;10.83;64.23;100004.00;4996110;28;20051;-67
2023/01/09 10:37:33;;;;;;;6.33;1.50;;;;;;;11.15;61.27;100024.56;4992586;28;20527;-69
2023/01/09 10:40:13;;;;;;;9.00;1.40;;;;;;;10.90;62.32;100015.31;4978634;28;20050;-68
2023/01/09 10:42:43;;;;;;;10.02;1.45;;;;;;;11.32;63.96;100027.19;4995309;28;20057;-69
2023/01/09 10:45:30;;;;;;;8.18;0.98;;;;;;;10.71;62.89;100017.66;4995679;28;20046;-69
2023/01/09 10:48:13;;;;;;;7.32;1.75;;;;;;;10.28;62.42;100022.53;4994915;28;20054;-69
2023/01/09 10:50:44;;;;;;;6.00;1.08;;;;;;;10.73;65.92;100023.66;4994433;28;20050;-69
2023/01/09 10:53:26;;;;;;;9.77;3.05;;;;;;;10.31;64.63;100024.63;4994207;28;20081;-69
2023/01/09 10:56:03;;;;;;;8.90;1.35;;;;;;;10.58;64.62;100029.72;5012689;28;20057;-68
2023/01/09 10:58:31;;;;;;;12.23;1.33;;;;;;;10.13;63.63;100029.34;4982218;28;20050;-69
2023/01/09 11:01:00;;;;;;;7.43;1.40;;;;;;;10.50;62.26;100038.00;4998717;28;20043;-68
2023/01/09 11:03:28;;;;;;;12.80;1.70;;;;;;;10.16;63.55;100023.19;4981601;28;20056;-69
2023/01/09 11:05:57;;;;;;;8.50;1.50;;;;;;;10.47;61.34;100044.16;4998552;28;20057;-68
2023/01/09 11:08:41;;;;;;;7.15;1.27;;;;;;;10.88;66.56;100038.84;4981554;28;20050;-68
2023/01/09 11:11:09;;;;;;;9.43;1.60;;;;;;;11.26;62.66;100045.88;4997495;28;20081;-68
2023/01/09 11:13:37;;;;;;;6.13;1.20;;;;;;;10.92;61.09;100040.56;4999117;28;20371;-68
2023/01/09 11:16:04;;;;;;;5.28;1.15;;;;;;;10.49;60.89;100039.13;4996713;28;20402;-68
2023/01/09 11:18:34;;;;;;;7.20;1.60;;;;;;;11.05;62.91;100039.50;4999300;28;20061;-69
2023/01/09 11:21:27;;;;;;;10.23;2.03;;;;;;;10.35;63.12;100028.34;4997255;28;20043;-68
2023/01/09 11:23:55;;;;;;;10.43;1.90;;;;;;;11.25;63.64;100029.69;4998505;28;20058;-70
2023/01/09 11:26:25;;;;;;;5.25;1.70;;;;;;;10.39;61.81;100034.00;4995999;28;20046;-68
2023/01/09 11:29:08;;;;;;;9.50;2.10;;;;;;;10.88;63.77;100030.56;5013343;28;20058;-70
2023/01/09 11:31:36;;;;;;;11.68;1.50;;;;;;;10.61;61.96;100042.00;4981033;28;20061;-69
2023/01/09 11:34:06;;;;;;;8.52;1.63;;;;;;;10.36;63.65;100034.63;5013323;28;20418;-71
2023/01/09 11:36:33;;;;;;;9.03;2.03;;;;;;;10.84;64.73;100041.44;4980777;28;20061;-68
2023/01/09 11:39:01;;;;;;;7.05;1.67;;;;;;;11.17;64.93;100034.13;4998532;28;20061;-68
2023/01/09 11:41:33;;;;;;;8.63;2.13;;;;;;;10.34;63.34;100034.19;4997462;28;20058;-68
2023/01/09 11:44:02;;;;;;;7.53;2.03;;;;;;;10.60;64.14;100041.19;4998307;28;20062;-68
2023/01/09 11:46:42;;;;;;;7.43;1.85;;;;;;;10.69;61.59;100058.50;4998020;28;20047;-68
2023/01/09 11:49:16;;;;;;;8.05;1.90;;;;;;;10.28;63.48;100057.50;4997268;28;20053;-68
2023/01/09 11:51:44;;;;;;;5.80;1.42;;;;;;;10.64;64.26;100049.59;4998167;28;20795;-69
2023/01/09 11:54:20;;;;;;;11.20;1.58;;;;;;;11.57;64.78;100055.72;4980997;28;20058;-68
2023/01/09 11:56:48;;;;;;;11.05;1.83;;;;;;;10.88;61.43;100058.91;4996889;28;20061;-68